sensor_id;sensor_type;location;lat;lon;timestamp;P1;durP1;ratioP1;P2;durP2;ratioP2
20669;SDS011;10494;50.868;4.180;2023-06-19T00:02:20;5.88;;;3.72;;
20669;SDS011;10494;50.868;4.180;2023-06-19T00:04:46;7.43;;;3.67;;
20669;SDS011;10494;50.868;4.180;2023-06-19T00:07:11;5.72;;;3.58;;
20669;SDS011;10494;50.868;4.180;2023-06-19T00:09:37;8.52;;;4.07;;
20669;SDS011;10494;50.868;4.180;2023-06-19T00:12:02;8.00;;;3.70;;
20669;SDS011;10494;50.868;4.180;2023-06-19T00:14:29;7.15;;;4.40;;
20669;SDS011;10494;50.868;4.180;2023-06-19T00:16:54;9.55;;;4.43;;
20669;SDS011;10494;50.868;4.180;2023-06-19T00:19:21;10.63;;;4.82;;
20669;SDS011;10494;50.868;4.180;2023-06-19T00:21:47;13.27;;;4.30;;
20669;SDS011;10494;50.868;4.180;2023-06-19T00:24:13;8.15;;;3.90;;
20669;SDS011;10494;50.868;4.180;2023-06-19T00:26:38;8.07;;;3.78;;
20669;SDS011;10494;50.868;4.180;2023-06-19T00:29:05;13.52;;;4.85;;
20669;SDS011;10494;50.868;4.180;2023-06-19T00:31:31;8.07;;;4.07;;
20669;SDS011;10494;50.868;4.180;2023-06-19T00:33:57;6.93;;;4.60;;
20669;SDS011;10494;50.868;4.180;2023-06-19T00:36:23;7.60;;;4.50;;
20669;SDS011;10494;50.868;4.180;2023-06-19T00:38:51;9.23;;;4.47;;
20669;SDS011;10494;50.868;4.180;2023-06-19T00:41:17;6.22;;;4.53;;
20669;SDS011;10494;50.868;4.180;2023-06-19T00:43:43;6.32;;;4.80;;
20669;SDS011;10494;50.868;4.180;2023-06-19T00:46:09;9.35;;;4.38;;
20669;SDS011;10494;50.868;4.180;2023-06-19T00:48:36;7.10;;;4.20;;
20669;SDS011;10494;50.868;4.180;2023-06-19T00:51:01;5.90;;;3.95;;
20669;SDS011;10494;50.868;4.180;2023-06-19T00:53:27;6.45;;;4.13;;
20669;SDS011;10494;50.868;4.180;2023-06-19T00:55:53;9.93;;;4.30;;
20669;SDS011;10494;50.868;4.180;2023-06-19T00:58:21;9.73;;;4.45;;
20669;SDS011;10494;50.868;4.180;2023-06-19T01:00:47;6.80;;;4.57;;
20669;SDS011;10494;50.868;4.180;2023-06-19T01:03:14;12.43;;;4.68;;
20669;SDS011;10494;50.868;4.180;2023-06-19T01:05:40;5.65;;;4.43;;
20669;SDS011;10494;50.868;4.180;2023-06-19T01:08:14;9.60;;;4.75;;
20669;SDS011;10494;50.868;4.180;2023-06-19T01:11:02;7.70;;;4.93;;
20669;SDS011;10494;50.868;4.180;2023-06-19T01:16:04;11.05;;;5.28;;
20669;SDS011;10494;50.868;4.180;2023-06-19T01:18:31;10.50;;;5.65;;
20669;SDS011;10494;50.868;4.180;2023-06-19T01:21:08;7.25;;;5.25;;
20669;SDS011;10494;50.868;4.180;2023-06-19T01:23:38;11.43;;;5.70;;
20669;SDS011;10494;50.868;4.180;2023-06-19T01:26:03;15.60;;;5.88;;
20669;SDS011;10494;50.868;4.180;2023-06-19T01:28:29;8.70;;;5.15;;
20669;SDS011;10494;50.868;4.180;2023-06-19T01:30:54;8.45;;;5.55;;
20669;SDS011;10494;50.868;4.180;2023-06-19T01:33:25;8.65;;;5.13;;
20669;SDS011;10494;50.868;4.180;2023-06-19T01:35:53;10.90;;;5.45;;
20669;SDS011;10494;50.868;4.180;2023-06-19T01:38:20;10.52;;;5.78;;
20669;SDS011;10494;50.868;4.180;2023-06-19T01:40:50;8.27;;;5.97;;
20669;SDS011;10494;50.868;4.180;2023-06-19T01:43:18;11.55;;;6.30;;
20669;SDS011;10494;50.868;4.180;2023-06-19T01:45:44;11.95;;;6.65;;
20669;SDS011;10494;50.868;4.180;2023-06-19T01:48:10;9.57;;;6.07;;
20669;SDS011;10494;50.868;4.180;2023-06-19T01:50:35;13.57;;;5.93;;
20669;SDS011;10494;50.868;4.180;2023-06-19T01:53:01;12.88;;;6.85;;
20669;SDS011;10494;50.868;4.180;2023-06-19T01:55:27;7.80;;;6.03;;
20669;SDS011;10494;50.868;4.180;2023-06-19T01:57:52;12.10;;;6.47;;
20669;SDS011;10494;50.868;4.180;2023-06-19T02:00:18;7.93;;;5.47;;
20669;SDS011;10494;50.868;4.180;2023-06-19T02:02:44;14.55;;;6.72;;
20669;SDS011;10494;50.868;4.180;2023-06-19T02:05:09;16.15;;;6.55;;
20669;SDS011;10494;50.868;4.180;2023-06-19T02:07:36;10.95;;;6.35;;
20669;SDS011;10494;50.868;4.180;2023-06-19T02:10:02;9.32;;;6.15;;
20669;SDS011;10494;50.868;4.180;2023-06-19T02:12:28;15.93;;;6.72;;
20669;SDS011;10494;50.868;4.180;2023-06-19T02:14:53;11.27;;;7.07;;
20669;SDS011;10494;50.868;4.180;2023-06-19T02:17:19;20.23;;;6.97;;
20669;SDS011;10494;50.868;4.180;2023-06-19T02:19:44;10.88;;;6.50;;
20669;SDS011;10494;50.868;4.180;2023-06-19T02:22:10;12.43;;;6.97;;
20669;SDS011;10494;50.868;4.180;2023-06-19T02:24:36;13.38;;;6.70;;
20669;SDS011;10494;50.868;4.180;2023-06-19T02:27:02;9.85;;;6.55;;
20669;SDS011;10494;50.868;4.180;2023-06-19T02:29:27;15.60;;;6.97;;
20669;SDS011;10494;50.868;4.180;2023-06-19T02:31:54;9.73;;;6.88;;
20669;SDS011;10494;50.868;4.180;2023-06-19T02:34:20;15.40;;;6.53;;
20669;SDS011;10494;50.868;4.180;2023-06-19T02:36:49;14.00;;;6.95;;
20669;SDS011;10494;50.868;4.180;2023-06-19T02:39:15;10.30;;;7.05;;
20669;SDS011;10494;50.868;4.180;2023-06-19T02:41:40;12.02;;;8.10;;
20669;SDS011;10494;50.868;4.180;2023-06-19T02:44:10;11.05;;;6.72;;
20669;SDS011;10494;50.868;4.180;2023-06-19T02:46:39;14.52;;;6.90;;
20669;SDS011;10494;50.868;4.180;2023-06-19T02:49:05;9.65;;;7.00;;
20669;SDS011;10494;50.868;4.180;2023-06-19T02:51:31;9.88;;;6.55;;
20669;SDS011;10494;50.868;4.180;2023-06-19T02:53:57;11.18;;;6.90;;
20669;SDS011;10494;50.868;4.180;2023-06-19T02:56:22;11.00;;;7.28;;
20669;SDS011;10494;50.868;4.180;2023-06-19T02:58:50;12.90;;;6.55;;
20669;SDS011;10494;50.868;4.180;2023-06-19T03:01:15;9.77;;;6.85;;
20669;SDS011;10494;50.868;4.180;2023-06-19T03:03:41;10.82;;;6.45;;
20669;SDS011;10494;50.868;4.180;2023-06-19T03:06:07;9.63;;;6.40;;
20669;SDS011;10494;50.868;4.180;2023-06-19T03:08:36;11.98;;;6.47;;
20669;SDS011;10494;50.868;4.180;2023-06-19T03:11:03;10.93;;;6.20;;
20669;SDS011;10494;50.868;4.180;2023-06-19T03:13:53;10.50;;;6.43;;
20669;SDS011;10494;50.868;4.180;2023-06-19T03:16:18;11.32;;;6.90;;
20669;SDS011;10494;50.868;4.180;2023-06-19T03:18:45;21.15;;;6.63;;
20669;SDS011;10494;50.868;4.180;2023-06-19T03:21:11;8.60;;;5.65;;
20669;SDS011;10494;50.868;4.180;2023-06-19T03:23:37;11.88;;;6.70;;
20669;SDS011;10494;50.868;4.180;2023-06-19T03:26:03;14.23;;;6.93;;
20669;SDS011;10494;50.868;4.180;2023-06-19T03:28:29;12.15;;;7.25;;
20669;SDS011;10494;50.868;4.180;2023-06-19T03:30:54;9.90;;;6.22;;
20669;SDS011;10494;50.868;4.180;2023-06-19T03:33:20;8.52;;;6.38;;
20669;SDS011;10494;50.868;4.180;2023-06-19T03:35:46;9.13;;;6.00;;
20669;SDS011;10494;50.868;4.180;2023-06-19T03:38:11;11.02;;;7.13;;
20669;SDS011;10494;50.868;4.180;2023-06-19T03:40:37;11.30;;;6.43;;
20669;SDS011;10494;50.868;4.180;2023-06-19T03:43:03;10.50;;;6.38;;
20669;SDS011;10494;50.868;4.180;2023-06-19T03:45:28;9.02;;;6.30;;
20669;SDS011;10494;50.868;4.180;2023-06-19T03:47:54;11.35;;;6.53;;
20669;SDS011;10494;50.868;4.180;2023-06-19T03:50:19;10.77;;;6.20;;
20669;SDS011;10494;50.868;4.180;2023-06-19T03:52:45;13.18;;;6.53;;
20669;SDS011;10494;50.868;4.180;2023-06-19T03:55:10;8.48;;;5.72;;
20669;SDS011;10494;50.868;4.180;2023-06-19T03:57:36;10.38;;;6.18;;
20669;SDS011;10494;50.868;4.180;2023-06-19T04:00:02;9.55;;;6.53;;
20669;SDS011;10494;50.868;4.180;2023-06-19T04:02:32;8.75;;;6.75;;
20669;SDS011;10494;50.868;4.180;2023-06-19T04:04:58;13.02;;;6.63;;
20669;SDS011;10494;50.868;4.180;2023-06-19T04:07:24;9.73;;;7.22;;
20669;SDS011;10494;50.868;4.180;2023-06-19T04:09:49;12.68;;;6.75;;
20669;SDS011;10494;50.868;4.180;2023-06-19T04:12:15;9.15;;;6.78;;
20669;SDS011;10494;50.868;4.180;2023-06-19T04:14:41;10.82;;;7.05;;
20669;SDS011;10494;50.868;4.180;2023-06-19T04:17:06;11.73;;;6.38;;
20669;SDS011;10494;50.868;4.180;2023-06-19T04:19:32;10.52;;;7.93;;
20669;SDS011;10494;50.868;4.180;2023-06-19T04:21:57;10.80;;;7.20;;
20669;SDS011;10494;50.868;4.180;2023-06-19T04:24:23;11.90;;;7.68;;
20669;SDS011;10494;50.868;4.180;2023-06-19T04:26:48;11.15;;;6.93;;
20669;SDS011;10494;50.868;4.180;2023-06-19T04:29:14;9.02;;;6.97;;
20669;SDS011;10494;50.868;4.180;2023-06-19T04:31:43;11.90;;;7.68;;
20669;SDS011;10494;50.868;4.180;2023-06-19T04:34:11;14.40;;;8.27;;
20669;SDS011;10494;50.868;4.180;2023-06-19T04:36:41;12.10;;;9.13;;
20669;SDS011;10494;50.868;4.180;2023-06-19T04:39:06;13.75;;;9.13;;
20669;SDS011;10494;50.868;4.180;2023-06-19T04:41:32;12.35;;;8.90;;
20669;SDS011;10494;50.868;4.180;2023-06-19T04:43:58;15.85;;;9.50;;
20669;SDS011;10494;50.868;4.180;2023-06-19T04:46:23;11.38;;;8.95;;
20669;SDS011;10494;50.868;4.180;2023-06-19T04:48:49;15.45;;;10.23;;
20669;SDS011;10494;50.868;4.180;2023-06-19T04:51:17;16.60;;;10.43;;
20669;SDS011;10494;50.868;4.180;2023-06-19T04:53:49;17.83;;;11.63;;
20669;SDS011;10494;50.868;4.180;2023-06-19T04:56:14;15.90;;;10.75;;
20669;SDS011;10494;50.868;4.180;2023-06-19T04:58:41;15.95;;;11.55;;
20669;SDS011;10494;50.868;4.180;2023-06-19T05:01:11;18.05;;;11.38;;
20669;SDS011;10494;50.868;4.180;2023-06-19T05:03:38;17.42;;;11.65;;
20669;SDS011;10494;50.868;4.180;2023-06-19T05:06:04;16.45;;;11.63;;
20669;SDS011;10494;50.868;4.180;2023-06-19T05:08:30;18.25;;;11.57;;
20669;SDS011;10494;50.868;4.180;2023-06-19T05:10:56;19.02;;;13.07;;
20669;SDS011;10494;50.868;4.180;2023-06-19T05:13:22;20.25;;;12.52;;
20669;SDS011;10494;50.868;4.180;2023-06-19T05:15:48;28.15;;;13.02;;
20669;SDS011;10494;50.868;4.180;2023-06-19T05:18:15;17.02;;;12.73;;
20669;SDS011;10494;50.868;4.180;2023-06-19T05:20:41;17.90;;;12.60;;
20669;SDS011;10494;50.868;4.180;2023-06-19T05:23:06;16.33;;;12.35;;
20669;SDS011;10494;50.868;4.180;2023-06-19T05:25:32;18.98;;;13.60;;
20669;SDS011;10494;50.868;4.180;2023-06-19T05:27:58;19.63;;;12.23;;
20669;SDS011;10494;50.868;4.180;2023-06-19T05:30:23;21.40;;;13.77;;
20669;SDS011;10494;50.868;4.180;2023-06-19T05:32:49;15.05;;;12.38;;
20669;SDS011;10494;50.868;4.180;2023-06-19T05:35:14;22.60;;;13.65;;
20669;SDS011;10494;50.868;4.180;2023-06-19T05:37:40;20.50;;;13.88;;
20669;SDS011;10494;50.868;4.180;2023-06-19T05:40:08;21.50;;;13.05;;
20669;SDS011;10494;50.868;4.180;2023-06-19T05:42:35;18.52;;;12.98;;
20669;SDS011;10494;50.868;4.180;2023-06-19T05:45:01;20.38;;;13.05;;
20669;SDS011;10494;50.868;4.180;2023-06-19T05:47:27;20.13;;;11.95;;
20669;SDS011;10494;50.868;4.180;2023-06-19T05:49:55;15.63;;;12.30;;
20669;SDS011;10494;50.868;4.180;2023-06-19T05:52:23;20.38;;;13.95;;
20669;SDS011;10494;50.868;4.180;2023-06-19T05:54:49;22.58;;;14.07;;
20669;SDS011;10494;50.868;4.180;2023-06-19T05:57:15;16.08;;;12.05;;
20669;SDS011;10494;50.868;4.180;2023-06-19T05:59:45;24.10;;;13.32;;
20669;SDS011;10494;50.868;4.180;2023-06-19T06:02:14;18.40;;;14.10;;
20669;SDS011;10494;50.868;4.180;2023-06-19T06:04:40;19.55;;;13.40;;
20669;SDS011;10494;50.868;4.180;2023-06-19T06:07:07;18.83;;;13.13;;
20669;SDS011;10494;50.868;4.180;2023-06-19T06:09:33;16.52;;;12.52;;
20669;SDS011;10494;50.868;4.180;2023-06-19T06:11:59;18.98;;;12.98;;
20669;SDS011;10494;50.868;4.180;2023-06-19T06:14:25;19.55;;;13.30;;
20669;SDS011;10494;50.868;4.180;2023-06-19T06:16:51;22.85;;;13.00;;
20669;SDS011;10494;50.868;4.180;2023-06-19T06:19:17;16.63;;;12.57;;
20669;SDS011;10494;50.868;4.180;2023-06-19T06:21:48;16.15;;;11.65;;
20669;SDS011;10494;50.868;4.180;2023-06-19T06:24:13;18.58;;;12.32;;
20669;SDS011;10494;50.868;4.180;2023-06-19T06:26:39;15.15;;;11.45;;
20669;SDS011;10494;50.868;4.180;2023-06-19T06:29:05;19.85;;;12.98;;
20669;SDS011;10494;50.868;4.180;2023-06-19T06:31:30;18.63;;;12.43;;
20669;SDS011;10494;50.868;4.180;2023-06-19T06:33:56;18.92;;;12.48;;
20669;SDS011;10494;50.868;4.180;2023-06-19T06:36:21;15.95;;;11.52;;
20669;SDS011;10494;50.868;4.180;2023-06-19T06:38:47;18.92;;;11.63;;
20669;SDS011;10494;50.868;4.180;2023-06-19T06:41:13;18.48;;;11.65;;
20669;SDS011;10494;50.868;4.180;2023-06-19T06:43:40;18.65;;;11.63;;
20669;SDS011;10494;50.868;4.180;2023-06-19T06:46:07;19.48;;;12.40;;
20669;SDS011;10494;50.868;4.180;2023-06-19T06:48:35;19.67;;;12.63;;
20669;SDS011;10494;50.868;4.180;2023-06-19T06:51:01;20.70;;;12.93;;
20669;SDS011;10494;50.868;4.180;2023-06-19T06:53:27;23.40;;;12.48;;
20669;SDS011;10494;50.868;4.180;2023-06-19T06:55:53;22.85;;;13.85;;
20669;SDS011;10494;50.868;4.180;2023-06-19T06:58:19;18.92;;;13.95;;
20669;SDS011;10494;50.868;4.180;2023-06-19T07:00:45;20.00;;;13.38;;
20669;SDS011;10494;50.868;4.180;2023-06-19T07:03:11;21.35;;;14.32;;
20669;SDS011;10494;50.868;4.180;2023-06-19T07:05:36;23.48;;;15.35;;
20669;SDS011;10494;50.868;4.180;2023-06-19T07:08:02;20.63;;;15.10;;
20669;SDS011;10494;50.868;4.180;2023-06-19T07:10:29;22.73;;;15.02;;
20669;SDS011;10494;50.868;4.180;2023-06-19T07:12:55;23.67;;;14.93;;
20669;SDS011;10494;50.868;4.180;2023-06-19T07:15:20;20.42;;;14.02;;
20669;SDS011;10494;50.868;4.180;2023-06-19T07:17:46;18.13;;;11.98;;
20669;SDS011;10494;50.868;4.180;2023-06-19T07:20:12;23.38;;;14.10;;
20669;SDS011;10494;50.868;4.180;2023-06-19T07:22:37;19.00;;;14.50;;
20669;SDS011;10494;50.868;4.180;2023-06-19T07:25:04;22.05;;;14.60;;
20669;SDS011;10494;50.868;4.180;2023-06-19T07:27:31;18.83;;;14.75;;
20669;SDS011;10494;50.868;4.180;2023-06-19T07:29:57;18.95;;;14.93;;
20669;SDS011;10494;50.868;4.180;2023-06-19T07:32:23;22.48;;;15.73;;
20669;SDS011;10494;50.868;4.180;2023-06-19T07:34:48;23.20;;;16.05;;
20669;SDS011;10494;50.868;4.180;2023-06-19T07:37:14;19.17;;;15.20;;
20669;SDS011;10494;50.868;4.180;2023-06-19T07:39:51;26.23;;;16.30;;
20669;SDS011;10494;50.868;4.180;2023-06-19T07:42:17;19.13;;;14.35;;
20669;SDS011;10494;50.868;4.180;2023-06-19T07:44:44;20.55;;;14.60;;
20669;SDS011;10494;50.868;4.180;2023-06-19T07:47:10;20.70;;;14.18;;
20669;SDS011;10494;50.868;4.180;2023-06-19T07:49:38;20.85;;;14.05;;
20669;SDS011;10494;50.868;4.180;2023-06-19T07:52:04;20.17;;;14.60;;
20669;SDS011;10494;50.868;4.180;2023-06-19T07:54:30;17.65;;;14.43;;
20669;SDS011;10494;50.868;4.180;2023-06-19T07:56:58;16.48;;;13.68;;
20669;SDS011;10494;50.868;4.180;2023-06-19T07:59:24;17.65;;;14.20;;
20669;SDS011;10494;50.868;4.180;2023-06-19T08:01:49;18.08;;;13.88;;
20669;SDS011;10494;50.868;4.180;2023-06-19T08:04:15;21.60;;;13.73;;
20669;SDS011;10494;50.868;4.180;2023-06-19T08:06:41;16.40;;;12.75;;
20669;SDS011;10494;50.868;4.180;2023-06-19T08:09:06;20.08;;;12.15;;
20669;SDS011;10494;50.868;4.180;2023-06-19T08:11:32;16.42;;;11.48;;
20669;SDS011;10494;50.868;4.180;2023-06-19T08:13:57;17.00;;;11.65;;
20669;SDS011;10494;50.868;4.180;2023-06-19T08:16:24;14.73;;;11.48;;
20669;SDS011;10494;50.868;4.180;2023-06-19T08:18:50;16.30;;;10.60;;
20669;SDS011;10494;50.868;4.180;2023-06-19T08:21:16;12.82;;;10.13;;
20669;SDS011;10494;50.868;4.180;2023-06-19T08:23:42;19.67;;;10.15;;
20669;SDS011;10494;50.868;4.180;2023-06-19T08:26:09;16.27;;;10.35;;
20669;SDS011;10494;50.868;4.180;2023-06-19T08:28:35;14.52;;;10.43;;
20669;SDS011;10494;50.868;4.180;2023-06-19T08:31:00;15.00;;;9.80;;
20669;SDS011;10494;50.868;4.180;2023-06-19T08:33:26;13.20;;;9.65;;
20669;SDS011;10494;50.868;4.180;2023-06-19T08:35:51;13.40;;;9.65;;
20669;SDS011;10494;50.868;4.180;2023-06-19T08:38:18;11.48;;;8.95;;
20669;SDS011;10494;50.868;4.180;2023-06-19T08:40:44;15.18;;;8.80;;
20669;SDS011;10494;50.868;4.180;2023-06-19T08:43:10;15.55;;;8.98;;
20669;SDS011;10494;50.868;4.180;2023-06-19T08:45:36;11.48;;;9.20;;
20669;SDS011;10494;50.868;4.180;2023-06-19T08:48:02;13.95;;;9.55;;
20669;SDS011;10494;50.868;4.180;2023-06-19T08:50:29;11.30;;;9.18;;
20669;SDS011;10494;50.868;4.180;2023-06-19T08:52:55;11.82;;;8.32;;
20669;SDS011;10494;50.868;4.180;2023-06-19T08:55:21;13.05;;;8.48;;
20669;SDS011;10494;50.868;4.180;2023-06-19T08:57:48;14.20;;;9.15;;
20669;SDS011;10494;50.868;4.180;2023-06-19T09:00:22;13.43;;;10.23;;
20669;SDS011;10494;50.868;4.180;2023-06-19T09:02:57;13.07;;;9.38;;
20669;SDS011;10494;50.868;4.180;2023-06-19T09:05:27;10.70;;;7.82;;
20669;SDS011;10494;50.868;4.180;2023-06-19T09:07:57;13.60;;;8.95;;
20669;SDS011;10494;50.868;4.180;2023-06-19T09:10:27;15.32;;;9.48;;
20669;SDS011;10494;50.868;4.180;2023-06-19T09:13:00;14.35;;;9.40;;
20669;SDS011;10494;50.868;4.180;2023-06-19T09:15:27;14.02;;;8.73;;
20669;SDS011;10494;50.868;4.180;2023-06-19T09:18:04;10.07;;;8.25;;
20669;SDS011;10494;50.868;4.180;2023-06-19T09:20:30;11.13;;;7.72;;
20669;SDS011;10494;50.868;4.180;2023-06-19T09:22:56;13.18;;;8.80;;
20669;SDS011;10494;50.868;4.180;2023-06-19T09:25:23;13.80;;;9.32;;
20669;SDS011;10494;50.868;4.180;2023-06-19T09:27:48;11.45;;;8.20;;
20669;SDS011;10494;50.868;4.180;2023-06-19T09:30:15;12.40;;;8.68;;
20669;SDS011;10494;50.868;4.180;2023-06-19T09:32:41;12.98;;;7.53;;
20669;SDS011;10494;50.868;4.180;2023-06-19T09:35:06;14.52;;;8.90;;
20669;SDS011;10494;50.868;4.180;2023-06-19T09:37:32;15.25;;;9.30;;
20669;SDS011;10494;50.868;4.180;2023-06-19T09:39:59;13.13;;;9.45;;
20669;SDS011;10494;50.868;4.180;2023-06-19T09:42:30;16.40;;;10.20;;
20669;SDS011;10494;50.868;4.180;2023-06-19T09:45:00;14.75;;;9.27;;
20669;SDS011;10494;50.868;4.180;2023-06-19T09:47:31;16.00;;;8.32;;
20669;SDS011;10494;50.868;4.180;2023-06-19T09:50:06;16.17;;;8.85;;
20669;SDS011;10494;50.868;4.180;2023-06-19T09:52:32;15.60;;;10.18;;
20669;SDS011;10494;50.868;4.180;2023-06-19T09:54:58;15.45;;;9.82;;
20669;SDS011;10494;50.868;4.180;2023-06-19T09:57:27;14.82;;;8.93;;
20669;SDS011;10494;50.868;4.180;2023-06-19T09:59:54;13.68;;;8.45;;
20669;SDS011;10494;50.868;4.180;2023-06-19T10:02:24;13.23;;;8.50;;
20669;SDS011;10494;50.868;4.180;2023-06-19T10:04:53;14.77;;;9.38;;
20669;SDS011;10494;50.868;4.180;2023-06-19T10:07:31;16.00;;;8.77;;
20669;SDS011;10494;50.868;4.180;2023-06-19T10:12:35;17.98;;;9.43;;
20669;SDS011;10494;50.868;4.180;2023-06-19T10:15:12;16.65;;;9.10;;
20669;SDS011;10494;50.868;4.180;2023-06-19T10:17:48;15.75;;;9.25;;
20669;SDS011;10494;50.868;4.180;2023-06-19T10:20:30;11.68;;;8.05;;
20669;SDS011;10494;50.868;4.180;2023-06-19T10:23:22;12.43;;;8.65;;
20669;SDS011;10494;50.868;4.180;2023-06-19T10:25:59;11.95;;;8.05;;
20669;SDS011;10494;50.868;4.180;2023-06-19T10:28:26;13.45;;;7.78;;
20669;SDS011;10494;50.868;4.180;2023-06-19T10:31:01;13.23;;;8.43;;
20669;SDS011;10494;50.868;4.180;2023-06-19T10:33:31;13.15;;;8.57;;
20669;SDS011;10494;50.868;4.180;2023-06-19T10:35:58;11.80;;;8.50;;
20669;SDS011;10494;50.868;4.180;2023-06-19T10:38:26;10.63;;;7.40;;
20669;SDS011;10494;50.868;4.180;2023-06-19T10:40:51;12.57;;;7.32;;
20669;SDS011;10494;50.868;4.180;2023-06-19T10:43:21;12.77;;;7.05;;
20669;SDS011;10494;50.868;4.180;2023-06-19T10:45:49;12.48;;;7.35;;
20669;SDS011;10494;50.868;4.180;2023-06-19T10:48:23;13.05;;;7.75;;
20669;SDS011;10494;50.868;4.180;2023-06-19T10:50:49;11.07;;;7.45;;
20669;SDS011;10494;50.868;4.180;2023-06-19T10:53:31;15.35;;;8.77;;
20669;SDS011;10494;50.868;4.180;2023-06-19T10:55:58;18.08;;;9.30;;
20669;SDS011;10494;50.868;4.180;2023-06-19T10:58:24;17.20;;;8.75;;
20669;SDS011;10494;50.868;4.180;2023-06-19T11:00:50;17.23;;;8.93;;
20669;SDS011;10494;50.868;4.180;2023-06-19T11:03:16;15.02;;;8.93;;
20669;SDS011;10494;50.868;4.180;2023-06-19T11:05:43;14.23;;;10.23;;
20669;SDS011;10494;50.868;4.180;2023-06-19T11:08:16;14.50;;;9.02;;
20669;SDS011;10494;50.868;4.180;2023-06-19T11:10:46;12.90;;;8.80;;
20669;SDS011;10494;50.868;4.180;2023-06-19T11:13:18;12.77;;;7.55;;
20669;SDS011;10494;50.868;4.180;2023-06-19T11:15:44;15.07;;;9.57;;
20669;SDS011;10494;50.868;4.180;2023-06-19T11:18:10;13.38;;;8.70;;
20669;SDS011;10494;50.868;4.180;2023-06-19T11:20:46;16.20;;;9.77;;
20669;SDS011;10494;50.868;4.180;2023-06-19T11:23:26;13.43;;;8.95;;
20669;SDS011;10494;50.868;4.180;2023-06-19T11:25:52;13.43;;;8.95;;
20669;SDS011;10494;50.868;4.180;2023-06-19T11:28:18;12.80;;;8.02;;
20669;SDS011;10494;50.868;4.180;2023-06-19T11:30:47;10.02;;;7.53;;
20669;SDS011;10494;50.868;4.180;2023-06-19T11:33:19;15.90;;;9.40;;
20669;SDS011;10494;50.868;4.180;2023-06-19T11:35:48;11.10;;;7.72;;
20669;SDS011;10494;50.868;4.180;2023-06-19T11:38:21;13.95;;;8.02;;
20669;SDS011;10494;50.868;4.180;2023-06-19T11:40:48;11.68;;;8.30;;
20669;SDS011;10494;50.868;4.180;2023-06-19T11:43:24;16.98;;;7.50;;
20669;SDS011;10494;50.868;4.180;2023-06-19T11:45:51;11.20;;;7.93;;
20669;SDS011;10494;50.868;4.180;2023-06-19T11:48:26;11.40;;;7.35;;
20669;SDS011;10494;50.868;4.180;2023-06-19T11:50:52;11.07;;;7.03;;
20669;SDS011;10494;50.868;4.180;2023-06-19T11:53:19;11.32;;;6.82;;
20669;SDS011;10494;50.868;4.180;2023-06-19T11:55:49;11.40;;;6.78;;
20669;SDS011;10494;50.868;4.180;2023-06-19T11:58:15;10.55;;;7.20;;
20669;SDS011;10494;50.868;4.180;2023-06-19T12:00:41;10.93;;;7.13;;
20669;SDS011;10494;50.868;4.180;2023-06-19T12:03:08;11.90;;;7.93;;
20669;SDS011;10494;50.868;4.180;2023-06-19T12:05:34;12.25;;;8.25;;
20669;SDS011;10494;50.868;4.180;2023-06-19T12:08:00;12.85;;;7.47;;
20669;SDS011;10494;50.868;4.180;2023-06-19T12:10:29;13.23;;;6.40;;
20669;SDS011;10494;50.868;4.180;2023-06-19T12:12:55;13.55;;;7.72;;
20669;SDS011;10494;50.868;4.180;2023-06-19T12:15:21;11.15;;;6.60;;
20669;SDS011;10494;50.868;4.180;2023-06-19T12:17:46;14.98;;;6.15;;
20669;SDS011;10494;50.868;4.180;2023-06-19T12:20:12;12.07;;;6.07;;
20669;SDS011;10494;50.868;4.180;2023-06-19T12:22:39;10.75;;;5.78;;
20669;SDS011;10494;50.868;4.180;2023-06-19T12:25:05;11.82;;;6.70;;
20669;SDS011;10494;50.868;4.180;2023-06-19T12:27:31;9.85;;;6.35;;
20669;SDS011;10494;50.868;4.180;2023-06-19T12:29:56;16.73;;;7.13;;
20669;SDS011;10494;50.868;4.180;2023-06-19T12:32:22;10.60;;;6.22;;
20669;SDS011;10494;50.868;4.180;2023-06-19T12:34:48;10.52;;;6.03;;
20669;SDS011;10494;50.868;4.180;2023-06-19T12:37:18;10.75;;;6.47;;
20669;SDS011;10494;50.868;4.180;2023-06-19T12:39:45;12.50;;;6.68;;
20669;SDS011;10494;50.868;4.180;2023-06-19T12:42:14;10.93;;;6.20;;
20669;SDS011;10494;50.868;4.180;2023-06-19T12:44:40;9.95;;;6.50;;
20669;SDS011;10494;50.868;4.180;2023-06-19T12:47:07;13.57;;;7.03;;
20669;SDS011;10494;50.868;4.180;2023-06-19T12:49:33;15.05;;;6.55;;
20669;SDS011;10494;50.868;4.180;2023-06-19T12:51:59;9.90;;;6.93;;
20669;SDS011;10494;50.868;4.180;2023-06-19T12:54:25;15.00;;;6.65;;
20669;SDS011;10494;50.868;4.180;2023-06-19T12:56:52;11.88;;;7.40;;
20669;SDS011;10494;50.868;4.180;2023-06-19T12:59:17;16.42;;;7.57;;
20669;SDS011;10494;50.868;4.180;2023-06-19T13:01:43;11.57;;;6.18;;
20669;SDS011;10494;50.868;4.180;2023-06-19T13:04:09;12.25;;;6.57;;
20669;SDS011;10494;50.868;4.180;2023-06-19T13:06:36;13.45;;;6.70;;
20669;SDS011;10494;50.868;4.180;2023-06-19T13:09:01;11.50;;;5.78;;
20669;SDS011;10494;50.868;4.180;2023-06-19T13:11:29;10.93;;;6.22;;
20669;SDS011;10494;50.868;4.180;2023-06-19T13:13:55;10.60;;;6.55;;
20669;SDS011;10494;50.868;4.180;2023-06-19T13:16:21;11.63;;;6.40;;
20669;SDS011;10494;50.868;4.180;2023-06-19T13:18:50;11.30;;;6.70;;
20669;SDS011;10494;50.868;4.180;2023-06-19T13:21:16;10.10;;;6.57;;
20669;SDS011;10494;50.868;4.180;2023-06-19T13:23:42;12.02;;;6.78;;
20669;SDS011;10494;50.868;4.180;2023-06-19T13:26:08;14.07;;;6.07;;
20669;SDS011;10494;50.868;4.180;2023-06-19T13:28:33;8.98;;;5.85;;
20669;SDS011;10494;50.868;4.180;2023-06-19T13:30:59;12.40;;;5.90;;
20669;SDS011;10494;50.868;4.180;2023-06-19T13:33:25;9.45;;;6.35;;
20669;SDS011;10494;50.868;4.180;2023-06-19T13:35:51;8.23;;;5.70;;
20669;SDS011;10494;50.868;4.180;2023-06-19T13:38:17;9.88;;;5.18;;
20669;SDS011;10494;50.868;4.180;2023-06-19T13:40:43;8.60;;;5.25;;
20669;SDS011;10494;50.868;4.180;2023-06-19T13:43:09;9.82;;;5.13;;
20669;SDS011;10494;50.868;4.180;2023-06-19T13:45:35;12.90;;;5.63;;
20669;SDS011;10494;50.868;4.180;2023-06-19T13:48:03;9.10;;;5.30;;
20669;SDS011;10494;50.868;4.180;2023-06-19T13:50:29;9.93;;;5.28;;
20669;SDS011;10494;50.868;4.180;2023-06-19T13:52:55;8.00;;;4.63;;
20669;SDS011;10494;50.868;4.180;2023-06-19T13:55:21;8.30;;;4.90;;
20669;SDS011;10494;50.868;4.180;2023-06-19T13:57:48;9.77;;;5.88;;
20669;SDS011;10494;50.868;4.180;2023-06-19T14:00:13;11.13;;;4.97;;
20669;SDS011;10494;50.868;4.180;2023-06-19T14:02:39;9.02;;;6.20;;
20669;SDS011;10494;50.868;4.180;2023-06-19T14:05:06;8.90;;;5.60;;
20669;SDS011;10494;50.868;4.180;2023-06-19T14:07:33;8.73;;;5.65;;
20669;SDS011;10494;50.868;4.180;2023-06-19T14:10:00;12.95;;;5.43;;
20669;SDS011;10494;50.868;4.180;2023-06-19T14:12:27;7.72;;;4.95;;
20669;SDS011;10494;50.868;4.180;2023-06-19T14:14:52;12.23;;;5.45;;
20669;SDS011;10494;50.868;4.180;2023-06-19T14:17:18;7.03;;;4.82;;
20669;SDS011;10494;50.868;4.180;2023-06-19T14:19:44;8.10;;;4.75;;
20669;SDS011;10494;50.868;4.180;2023-06-19T14:22:09;8.02;;;5.20;;
20669;SDS011;10494;50.868;4.180;2023-06-19T14:24:35;7.90;;;4.63;;
20669;SDS011;10494;50.868;4.180;2023-06-19T14:27:00;6.97;;;4.25;;
20669;SDS011;10494;50.868;4.180;2023-06-19T14:29:26;9.32;;;4.22;;
20669;SDS011;10494;50.868;4.180;2023-06-19T14:31:51;9.45;;;5.20;;
20669;SDS011;10494;50.868;4.180;2023-06-19T14:34:19;8.68;;;4.72;;
20669;SDS011;10494;50.868;4.180;2023-06-19T14:36:45;10.43;;;4.90;;
20669;SDS011;10494;50.868;4.180;2023-06-19T14:39:11;6.15;;;4.78;;